createdAt,value
2019-05-25T00:00:59.887Z,2.10
2019-05-25T00:01:59.848Z,2.00
2019-05-25T00:02:59.839Z,2.10
2019-05-25T00:03:59.846Z,2.50
2019-05-25T00:04:59.819Z,2.40
2019-05-25T00:05:59.816Z,2.30
2019-05-25T00:06:59.792Z,2.00
2019-05-25T00:07:59.776Z,2.10
2019-05-25T00:08:59.774Z,2.00
2019-05-25T00:09:59.783Z,2.00
2019-05-25T00:10:59.759Z,1.90
2019-05-25T00:11:59.738Z,2.10
2019-05-25T00:12:59.723Z,2.00
2019-05-25T00:13:59.714Z,2.10
2019-05-25T00:14:59.708Z,1.80
2019-05-25T00:15:59.722Z,2.10
2019-05-25T00:16:59.684Z,1.80
2019-05-25T00:17:59.667Z,2.00
2019-05-25T00:18:59.661Z,1.70
2019-05-25T00:19:59.645Z,1.90
2019-05-25T00:20:59.656Z,2.10
2019-05-25T00:21:59.628Z,1.70
2019-05-25T00:22:59.613Z,1.80
2019-05-25T00:24:11.789Z,1.90
2019-05-25T00:25:00.592Z,1.90
2019-05-25T00:25:59.599Z,1.80
2019-05-25T00:26:59.577Z,1.90
2019-05-25T00:27:59.555Z,1.80
2019-05-25T00:28:59.545Z,2.10
2019-05-25T00:29:59.542Z,2.00
2019-05-25T00:30:59.549Z,1.90
2019-05-25T00:31:59.522Z,1.90
2019-05-25T00:32:59.501Z,2.10
2019-05-25T00:33:59.491Z,2.20
2019-05-25T00:34:59.497Z,2.20
2019-05-25T00:35:59.494Z,2.00
2019-05-25T00:36:59.464Z,2.00
2019-05-25T00:37:59.449Z,1.80
2019-05-25T00:38:59.436Z,1.70
2019-05-25T00:39:59.444Z,1.70
2019-05-25T00:40:59.412Z,2.20
2019-05-25T00:41:59.425Z,2.00
2019-05-25T00:42:59.397Z,1.90
2019-05-25T00:43:59.381Z,1.80
2019-05-25T00:44:59.372Z,1.80
2019-05-25T00:45:59.356Z,2.10
2019-05-25T00:46:59.366Z,1.90
2019-05-25T00:47:59.336Z,2.10
2019-05-25T00:48:59.329Z,1.80
2019-05-25T00:49:59.320Z,1.90
2019-05-25T00:50:59.302Z,1.90
2019-05-25T00:51:59.312Z,2.10
2019-05-25T00:52:59.280Z,1.90
2019-05-25T00:53:59.271Z,2.20
2019-05-25T00:54:59.274Z,2.00
2019-05-25T00:55:59.246Z,2.20
2019-05-25T00:56:59.263Z,2.20
2019-05-25T00:57:59.222Z,2.00
2019-05-25T00:58:59.211Z,2.20
2019-05-25T00:59:59.202Z,2.10
2019-05-25T01:00:59.216Z,2.10
2019-05-25T01:01:59.199Z,1.90
2019-05-25T01:02:59.174Z,2.30
2019-05-25T01:03:59.159Z,2.00
2019-05-25T01:04:59.151Z,2.10
2019-05-25T01:05:59.135Z,2.00
2019-05-25T01:06:59.143Z,1.80
2019-05-25T01:07:59.111Z,2.10
2019-05-25T01:08:59.102Z,2.00
2019-05-25T01:09:59.085Z,2.00
2019-05-25T01:10:59.075Z,2.00
2019-05-25T01:11:59.083Z,1.80
2019-05-25T01:12:59.060Z,2.00
2019-05-25T01:13:59.051Z,2.00
2019-05-25T01:14:59.036Z,2.00
2019-05-25T01:15:59.047Z,1.80
2019-05-25T01:16:59.027Z,2.30
2019-05-25T01:17:58.999Z,1.90
2019-05-25T01:18:59.000Z,2.30
2019-05-25T01:19:58.978Z,1.90
2019-05-25T01:20:58.963Z,2.20
2019-05-25T01:21:58.972Z,2.00
2019-05-25T01:22:58.943Z,2.10
2019-05-25T01:23:58.942Z,2.10
2019-05-25T01:24:58.920Z,2.20
2019-05-25T01:25:58.912Z,2.40
2019-05-25T01:26:58.926Z,2.10
2019-05-25T01:27:58.894Z,2.00
2019-05-25T01:28:58.881Z,2.00
2019-05-25T01:29:58.875Z,2.30
2019-05-25T01:30:58.861Z,2.20
2019-05-25T01:31:58.863Z,2.10
2019-05-25T01:32:58.848Z,2.40
2019-05-25T01:33:58.820Z,2.10
2019-05-25T01:34:58.818Z,2.40
2019-05-25T01:35:58.811Z,2.30
2019-05-25T01:36:58.805Z,2.30
2019-05-25T01:37:58.777Z,2.60
2019-05-25T01:38:58.763Z,2.50
2019-05-25T01:39:58.755Z,2.50
2019-05-25T01:40:58.751Z,2.10
2019-05-25T01:41:58.756Z,2.30
2019-05-25T01:42:58.731Z,2.40
2019-05-25T01:43:58.707Z,2.20
2019-05-25T01:44:58.704Z,2.40
2019-05-25T01:45:58.706Z,2.30
2019-05-25T01:46:58.678Z,2.50
2019-05-25T01:47:58.690Z,2.70
2019-05-25T01:48:58.651Z,2.50
2019-05-25T01:49:58.640Z,2.50
2019-05-25T01:50:58.649Z,2.20
2019-05-25T01:51:58.621Z,2.50
2019-05-25T01:52:58.629Z,2.30
2019-05-25T01:53:58.597Z,2.50
2019-05-25T01:55:00.260Z,2.20
2019-05-25T01:55:58.573Z,2.30
2019-05-25T01:56:58.564Z,2.30
2019-05-25T01:57:58.573Z,2.20
2019-05-25T01:58:58.548Z,2.00
2019-05-25T01:59:58.537Z,2.00
2019-05-25T02:00:58.517Z,2.10
2019-05-25T02:01:58.509Z,2.40
2019-05-25T02:02:58.514Z,2.00
2019-05-25T02:03:58.499Z,2.20
2019-05-25T02:04:58.476Z,2.30
2019-05-25T02:05:58.465Z,2.20
2019-05-25T02:06:58.459Z,2.50
2019-05-25T02:07:58.462Z,2.00
2019-05-25T02:08:58.437Z,2.30
2019-05-25T02:09:58.434Z,2.20
2019-05-25T02:10:58.426Z,2.30
2019-05-25T02:11:58.400Z,2.20
2019-05-25T02:12:58.403Z,2.40
2019-05-25T02:13:58.373Z,2.30
2019-05-25T02:14:58.363Z,2.10
2019-05-25T02:15:58.369Z,2.90
2019-05-25T02:16:58.340Z,2.50
2019-05-25T02:17:58.344Z,2.50
2019-05-25T02:18:58.323Z,2.40
2019-05-25T02:19:58.312Z,2.50
2019-05-25T02:20:58.304Z,2.40
2019-05-25T02:21:58.284Z,2.50
2019-05-25T02:22:58.302Z,2.80
2019-05-25T02:23:58.263Z,2.60
2019-05-25T02:24:58.250Z,2.70
2019-05-25T02:25:58.243Z,2.30
2019-05-25T02:26:58.249Z,2.30
2019-05-25T02:27:58.242Z,2.80
2019-05-25T02:28:58.208Z,2.60
2019-05-25T02:29:58.196Z,2.60
2019-05-25T02:30:58.191Z,2.20
2019-05-25T02:31:58.171Z,2.50
2019-05-25T02:32:58.181Z,2.60
2019-05-25T02:33:58.153Z,2.50
2019-05-25T02:34:58.167Z,2.70
2019-05-25T02:35:58.131Z,2.60
2019-05-25T02:36:58.126Z,2.80
2019-05-25T02:37:58.145Z,2.80
2019-05-25T02:38:58.104Z,2.70
2019-05-25T02:39:58.088Z,2.50
2019-05-25T02:40:58.078Z,2.70
2019-05-25T02:41:58.062Z,2.40
2019-05-25T02:42:58.074Z,2.30
2019-05-25T02:43:58.037Z,2.60
2019-05-25T02:44:58.067Z,2.70
2019-05-25T02:45:58.047Z,2.60
2019-05-25T02:46:58.018Z,2.60
2019-05-25T02:47:57.994Z,2.70
2019-05-25T02:48:58.002Z,2.60
2019-05-25T02:49:57.982Z,2.50
2019-05-25T02:50:57.964Z,2.70
2019-05-25T02:51:57.953Z,2.70
2019-05-25T02:52:57.935Z,2.60
2019-05-25T02:53:57.944Z,2.70
2019-05-25T02:54:57.930Z,2.50
2019-05-25T02:55:57.931Z,2.80
2019-05-25T02:56:57.903Z,2.60
2019-05-25T02:57:57.919Z,2.70
2019-05-25T02:58:57.895Z,2.30
2019-05-25T02:59:57.859Z,2.50
2019-05-25T03:00:57.856Z,2.30
2019-05-25T03:01:57.850Z,2.40
2019-05-25T03:02:57.829Z,2.50
2019-05-25T03:03:57.834Z,2.60
2019-05-25T03:04:57.823Z,2.50
2019-05-25T03:05:57.825Z,2.40
2019-05-25T03:06:57.794Z,2.70
2019-05-25T03:07:57.776Z,2.60
2019-05-25T03:08:57.775Z,2.30
2019-05-25T03:09:57.754Z,2.50
2019-05-25T03:10:57.755Z,2.50
2019-05-25T03:11:57.722Z,2.60
2019-05-25T03:12:57.720Z,2.60
2019-05-25T03:13:57.733Z,2.50
2019-05-25T03:14:57.689Z,2.80
2019-05-25T03:15:57.685Z,2.30
2019-05-25T03:16:57.685Z,2.50
2019-05-25T03:17:57.663Z,2.70
2019-05-25T03:18:57.672Z,2.30
2019-05-25T03:19:57.640Z,2.70
2019-05-25T03:20:57.631Z,2.50
2019-05-25T03:21:57.617Z,2.40
2019-05-25T03:22:57.606Z,2.60
2019-05-25T03:23:57.629Z,2.50
2019-05-25T03:24:57.579Z,2.40
2019-05-25T03:25:57.574Z,2.60
2019-05-25T03:26:57.559Z,2.50
2019-05-25T03:27:57.547Z,2.70
2019-05-25T03:28:57.555Z,2.70
2019-05-25T03:29:57.537Z,2.60
2019-05-25T03:30:57.512Z,2.50
2019-05-25T03:31:57.499Z,2.60
2019-05-25T03:32:57.493Z,2.40
2019-05-25T03:33:57.510Z,2.30
2019-05-25T03:34:57.472Z,2.70
2019-05-25T03:35:57.473Z,2.60
2019-05-25T03:36:57.449Z,2.80
2019-05-25T03:37:57.437Z,2.60
2019-05-25T03:38:57.444Z,2.60
2019-05-25T03:39:57.417Z,2.60
2019-05-25T03:40:57.409Z,2.60
2019-05-25T03:41:57.407Z,2.70
2019-05-25T03:42:57.381Z,2.80
2019-05-25T03:43:57.401Z,2.80
2019-05-25T03:44:57.356Z,3.00
2019-05-25T03:45:57.353Z,3.00
2019-05-25T03:46:57.358Z,2.70
2019-05-25T03:47:57.333Z,2.80
2019-05-25T03:48:57.309Z,2.80
2019-05-25T03:49:57.317Z,2.70
2019-05-25T03:50:57.292Z,2.70
2019-05-25T03:51:57.283Z,2.90
2019-05-25T03:52:57.272Z,2.60
2019-05-25T03:53:57.254Z,2.90
2019-05-25T03:54:57.277Z,2.50
2019-05-25T03:56:06.020Z,2.80
2019-05-25T03:56:58.223Z,2.90
2019-05-25T03:57:57.226Z,2.70
2019-05-25T03:58:57.203Z,2.70
2019-05-25T03:59:57.223Z,2.80
2019-05-25T04:00:57.177Z,2.90
2019-05-25T04:01:57.166Z,2.70
2019-05-25T04:02:57.156Z,2.60
2019-05-25T04:03:57.147Z,3.00
2019-05-25T04:04:57.156Z,2.90
2019-05-25T04:05:57.130Z,2.70
2019-05-25T04:06:57.111Z,2.70
2019-05-25T04:07:57.099Z,3.00
2019-05-25T04:08:57.090Z,2.80
2019-05-25T04:09:57.117Z,2.90
2019-05-25T04:10:57.074Z,2.60
2019-05-25T04:11:57.055Z,2.90
2019-05-25T04:12:57.044Z,2.80
2019-05-25T04:13:57.034Z,2.80
2019-05-25T04:14:57.042Z,2.90
2019-05-25T04:15:57.023Z,3.00
2019-05-25T04:16:57.024Z,3.10
2019-05-25T04:17:56.987Z,2.80
2019-05-25T04:18:56.980Z,3.10
2019-05-25T04:19:57.650Z,2.70
2019-05-25T04:20:56.952Z,2.60
2019-05-25T04:21:56.956Z,2.70
2019-05-25T04:22:56.930Z,2.70
2019-05-25T04:23:56.920Z,2.50
2019-05-25T04:24:56.979Z,2.60
2019-05-25T04:25:56.908Z,2.40
2019-05-25T04:26:56.900Z,2.90
2019-05-25T04:27:56.885Z,2.30
2019-05-25T04:28:56.870Z,2.60
2019-05-25T04:29:56.877Z,2.40
2019-05-25T04:30:56.842Z,2.60
2019-05-25T04:31:56.830Z,2.70
2019-05-25T04:32:56.877Z,2.40
2019-05-25T04:33:56.809Z,2.60
2019-05-25T04:34:56.824Z,2.80
2019-05-25T04:35:56.784Z,2.50
2019-05-25T04:36:56.783Z,2.40
2019-05-25T04:37:56.772Z,2.90
2019-05-25T04:38:56.757Z,2.70
2019-05-25T04:39:56.772Z,2.70
2019-05-25T04:40:56.731Z,2.60
2019-05-25T04:41:56.800Z,2.30
2019-05-25T04:42:56.725Z,2.50
2019-05-25T04:43:56.699Z,2.80
2019-05-25T04:44:56.710Z,2.50
2019-05-25T04:45:56.686Z,2.40
2019-05-25T04:46:56.668Z,2.40
2019-05-25T04:47:56.657Z,2.80
2019-05-25T04:48:56.638Z,2.50
2019-05-25T04:49:56.666Z,2.40
2019-05-25T04:50:56.620Z,2.60
2019-05-25T04:51:56.633Z,2.80
2019-05-25T04:52:56.599Z,2.70
2019-05-25T04:53:56.584Z,2.50
2019-05-25T04:54:56.576Z,2.40
2019-05-25T04:55:56.578Z,2.60
2019-05-25T04:56:56.568Z,2.70
2019-05-25T04:57:56.553Z,2.60
2019-05-25T04:58:56.531Z,2.80
2019-05-25T04:59:56.525Z,2.50
2019-05-25T05:00:56.526Z,2.60
2019-05-25T05:01:56.496Z,2.40
2019-05-25T05:02:56.522Z,2.40
2019-05-25T05:03:56.485Z,2.50
2019-05-25T05:04:56.473Z,2.60
2019-05-25T05:05:56.476Z,2.60
2019-05-25T05:06:56.443Z,2.60
2019-05-25T05:07:56.432Z,2.60
2019-05-25T05:08:56.423Z,2.30
2019-05-25T05:10:02.750Z,2.50
2019-05-25T05:10:57.438Z,2.70
2019-05-25T05:11:56.383Z,2.50
2019-05-25T05:12:56.384Z,2.30
2019-05-25T05:13:56.370Z,2.30
2019-05-25T05:14:56.649Z,2.50
2019-05-25T05:15:56.361Z,2.30
2019-05-25T05:16:56.327Z,2.10
2019-05-25T05:17:56.318Z,2.20
2019-05-25T05:18:56.312Z,2.00
2019-05-25T05:19:56.295Z,2.80
2019-05-25T05:20:56.322Z,2.20
2019-05-25T05:21:56.272Z,2.40
2019-05-25T05:22:56.273Z,2.20
2019-05-25T05:23:56.248Z,2.00
2019-05-25T05:24:56.242Z,2.10
2019-05-25T05:25:56.252Z,2.00
2019-05-25T05:26:56.581Z,2.00
2019-05-25T05:27:56.202Z,2.20
2019-05-25T05:28:56.194Z,2.00
2019-05-25T05:29:56.185Z,1.90
2019-05-25T05:30:56.194Z,2.10
2019-05-25T05:31:56.204Z,2.20
2019-05-25T05:32:56.154Z,2.00
2019-05-25T05:33:56.134Z,2.10
2019-05-25T05:34:56.131Z,2.00
2019-05-25T05:35:56.114Z,2.10
2019-05-25T05:36:56.137Z,2.30
2019-05-25T05:37:56.096Z,2.50
2019-05-25T05:38:56.086Z,2.10
2019-05-25T05:39:56.072Z,2.10
2019-05-25T05:40:56.063Z,2.20
2019-05-25T05:41:56.671Z,2.20
2019-05-25T05:42:56.053Z,2.30
2019-05-25T05:43:56.027Z,2.30
2019-05-25T05:44:56.022Z,2.10
2019-05-25T05:45:56.004Z,2.30
2019-05-25T05:46:56.017Z,2.10
2019-05-25T05:47:56.014Z,2.20
2019-05-25T05:48:55.968Z,2.30
2019-05-25T05:49:55.966Z,2.10
2019-05-25T05:50:55.948Z,2.40
2019-05-25T05:51:55.934Z,2.40
2019-05-25T05:52:55.966Z,2.30
2019-05-25T05:53:55.920Z,2.30
2019-05-25T05:54:55.902Z,2.10
2019-05-25T05:55:55.894Z,2.30
2019-05-25T05:57:11.197Z,2.30
2019-05-25T05:57:56.897Z,2.50
2019-05-25T05:58:55.869Z,2.30
2019-05-25T05:59:55.844Z,2.30
2019-05-25T06:00:55.840Z,2.20
2019-05-25T06:01:55.836Z,2.00
2019-05-25T06:02:55.840Z,2.10
2019-05-25T06:03:55.808Z,2.10
2019-05-25T06:04:55.800Z,2.00
2019-05-25T06:05:55.779Z,2.40
2019-05-25T06:06:55.769Z,2.20
2019-05-25T06:07:55.773Z,2.20
2019-05-25T06:08:55.757Z,2.10
2019-05-25T06:09:55.744Z,2.60
2019-05-25T06:10:55.732Z,2.20
2019-05-25T06:11:55.714Z,2.30
2019-05-25T06:12:55.717Z,2.00
2019-05-25T06:13:55.694Z,2.30
2019-05-25T06:14:55.682Z,2.50
2019-05-25T06:15:56.175Z,2.10
2019-05-25T06:16:55.654Z,2.20
2019-05-25T06:17:55.676Z,2.30
2019-05-25T06:18:55.635Z,2.50
2019-05-25T06:19:55.628Z,2.40
2019-05-25T06:20:55.612Z,2.20
2019-05-25T06:21:55.608Z,2.40
2019-05-25T06:22:55.643Z,2.50
2019-05-25T06:23:55.575Z,2.20
2019-05-25T06:24:55.564Z,2.60
2019-05-25T06:25:55.572Z,2.40
2019-05-25T06:26:55.542Z,2.60
2019-05-25T06:27:55.557Z,2.80
2019-05-25T06:28:55.520Z,2.10
2019-05-25T06:29:55.514Z,1.80
2019-05-25T06:30:55.515Z,2.40
2019-05-25T06:31:55.505Z,2.50
2019-05-25T06:32:55.506Z,2.30
2019-05-25T06:33:55.485Z,2.40
2019-05-25T06:34:55.456Z,2.30
2019-05-25T06:35:55.454Z,2.70
2019-05-25T06:36:55.439Z,2.20
2019-05-25T06:37:55.445Z,2.10
2019-05-25T06:38:55.418Z,2.30
2019-05-25T06:39:55.407Z,2.60
2019-05-25T06:40:55.396Z,2.50
2019-05-25T06:41:55.384Z,2.40
2019-05-25T06:42:55.395Z,2.20
2019-05-25T06:43:55.360Z,2.30
2019-05-25T06:44:55.353Z,2.20
2019-05-25T06:45:55.346Z,2.50
2019-05-25T06:46:55.325Z,2.20
2019-05-25T06:47:55.331Z,2.30
2019-05-25T06:48:55.306Z,2.60
2019-05-25T06:49:55.292Z,2.20
2019-05-25T06:50:55.280Z,2.70
2019-05-25T06:51:55.272Z,2.50
2019-05-25T06:52:57.908Z,2.40
2019-05-25T06:53:55.244Z,2.60
2019-05-25T06:54:55.249Z,2.40
2019-05-25T06:55:55.224Z,3.10
2019-05-25T06:56:55.215Z,2.40
2019-05-25T06:57:55.225Z,2.40
2019-05-25T06:58:55.189Z,2.40
2019-05-25T06:59:55.180Z,2.60
2019-05-25T07:00:55.174Z,2.80
2019-05-25T07:01:55.160Z,2.50
2019-05-25T07:02:55.177Z,2.30
2019-05-25T07:03:55.134Z,2.60
2019-05-25T07:04:55.124Z,2.70
2019-05-25T07:05:55.116Z,2.90
2019-05-25T07:06:55.106Z,2.80
2019-05-25T07:07:55.115Z,2.30
2019-05-25T07:08:55.074Z,2.40
2019-05-25T07:09:55.078Z,2.00
2019-05-25T07:10:55.059Z,2.20
2019-05-25T07:11:55.047Z,2.00
2019-05-25T07:12:55.071Z,2.30
2019-05-25T07:13:55.024Z,2.10
2019-05-25T07:14:55.012Z,2.20
2019-05-25T07:15:55.010Z,2.20
2019-05-25T07:16:54.991Z,2.40
2019-05-25T07:17:54.987Z,2.00
2019-05-25T07:18:54.992Z,2.10
2019-05-25T07:19:54.970Z,2.40
2019-05-25T07:20:54.945Z,2.30
2019-05-25T07:21:54.961Z,2.60
2019-05-25T07:22:54.927Z,2.10
2019-05-25T07:23:54.938Z,2.10
2019-05-25T07:24:54.902Z,2.30
2019-05-25T07:25:54.903Z,2.50
2019-05-25T07:26:54.878Z,2.30
2019-05-25T07:27:59.860Z,2.30
2019-05-25T07:28:55.875Z,2.30
2019-05-25T07:29:54.842Z,2.60
2019-05-25T07:30:54.877Z,2.10
2019-05-25T07:31:54.825Z,2.30
2019-05-25T07:32:54.820Z,2.30
2019-05-25T07:33:54.917Z,2.30
2019-05-25T07:34:54.794Z,2.10
2019-05-25T07:35:54.780Z,2.30
2019-05-25T07:36:54.775Z,2.40
2019-05-25T07:37:54.759Z,2.70
2019-05-25T07:38:54.767Z,2.50
2019-05-25T07:39:54.733Z,2.30
2019-05-25T07:40:54.732Z,2.60
2019-05-25T07:41:54.710Z,2.30
2019-05-25T07:42:54.704Z,2.50
2019-05-25T07:43:54.720Z,2.50
2019-05-25T07:44:54.674Z,2.30
2019-05-25T07:45:54.663Z,2.70
2019-05-25T07:46:54.659Z,2.50
2019-05-25T07:47:54.651Z,2.70
2019-05-25T07:48:54.652Z,2.60
2019-05-25T07:49:54.701Z,2.60
2019-05-25T07:50:54.632Z,2.50
2019-05-25T07:51:54.598Z,2.70
2019-05-25T07:52:54.593Z,2.60
2019-05-25T07:53:54.575Z,2.60
2019-05-25T07:54:54.597Z,2.50
2019-05-25T07:55:54.555Z,3.30
2019-05-25T07:56:54.544Z,2.60
2019-05-25T07:57:54.547Z,2.90
2019-05-25T07:58:54.520Z,2.40
2019-05-25T07:59:54.533Z,2.90
2019-05-25T08:00:54.496Z,2.50
2019-05-25T08:01:54.486Z,3.10
2019-05-25T08:02:54.474Z,2.70
2019-05-25T08:03:54.463Z,2.50
2019-05-25T08:04:54.468Z,2.80
2019-05-25T08:05:54.449Z,3.00
2019-05-25T08:06:54.549Z,2.30
2019-05-25T08:07:54.433Z,2.80
2019-05-25T08:08:54.410Z,3.00
2019-05-25T08:09:54.424Z,2.60
2019-05-25T08:10:54.544Z,2.80
2019-05-25T08:11:54.447Z,2.80
2019-05-25T08:12:54.389Z,2.70
2019-05-25T08:13:54.352Z,3.00
2019-05-25T08:14:54.363Z,3.00
2019-05-25T08:15:54.336Z,3.00
2019-05-25T08:16:54.318Z,2.80
2019-05-25T08:17:54.310Z,3.20
2019-05-25T08:18:54.295Z,3.40
2019-05-25T08:19:54.307Z,3.10
2019-05-25T08:20:54.282Z,3.20
2019-05-25T08:21:54.274Z,3.40
2019-05-25T08:22:54.259Z,3.20
2019-05-25T08:23:54.239Z,3.80
2019-05-25T08:24:54.271Z,3.60
2019-05-25T08:25:54.220Z,3.20
2019-05-25T08:26:54.206Z,3.30
2019-05-25T08:27:54.201Z,3.40
2019-05-25T08:28:54.204Z,3.30
2019-05-25T08:29:54.180Z,3.20
2019-05-25T08:30:54.190Z,3.30
2019-05-25T08:31:54.153Z,3.10
2019-05-25T08:32:54.207Z,3.40
2019-05-25T08:33:54.140Z,3.30
2019-05-25T08:34:54.133Z,3.70
2019-05-25T08:35:54.126Z,3.30
2019-05-25T08:36:54.095Z,3.70
2019-05-25T08:37:54.081Z,3.30
2019-05-25T08:38:54.946Z,3.40
2019-05-25T08:39:54.087Z,3.60
2019-05-25T08:40:54.098Z,3.60
2019-05-25T08:41:54.044Z,3.50
2019-05-25T08:42:54.029Z,3.40
2019-05-25T08:43:54.036Z,3.70
2019-05-25T08:44:54.009Z,3.60
2019-05-25T08:45:54.013Z,3.50
2019-05-25T08:46:55.503Z,3.40
2019-05-25T08:47:57.064Z,3.70
2019-05-25T08:48:54.035Z,3.30
2019-05-25T08:49:53.961Z,3.50
2019-05-25T08:50:53.944Z,3.50
2019-05-25T08:51:55.033Z,3.50
2019-05-25T08:52:53.920Z,3.30
2019-05-25T08:53:53.915Z,3.40
2019-05-25T08:54:53.897Z,3.40
2019-05-25T08:55:53.883Z,3.20
2019-05-25T08:56:53.889Z,3.30
2019-05-25T08:57:53.874Z,3.00
2019-05-25T08:58:55.641Z,3.30
2019-05-25T08:59:53.834Z,3.60
2019-05-25T09:00:53.829Z,3.60
2019-05-25T09:01:53.844Z,3.60
2019-05-25T09:02:53.816Z,3.50
2019-05-25T09:03:53.834Z,3.60
2019-05-25T09:04:53.782Z,3.80
2019-05-25T09:05:53.771Z,3.70
2019-05-25T09:06:53.784Z,3.80
2019-05-25T09:07:53.756Z,3.80
2019-05-25T09:08:53.755Z,3.70
2019-05-25T09:09:53.721Z,3.20
2019-05-25T09:10:53.717Z,3.40
2019-05-25T09:11:53.709Z,3.60
2019-05-25T09:12:53.720Z,3.40
2019-05-25T09:13:53.687Z,3.60
2019-05-25T09:14:53.697Z,3.30
2019-05-25T09:15:53.660Z,3.80
2019-05-25T09:16:53.650Z,3.70
2019-05-25T09:17:53.665Z,4.10
2019-05-25T09:18:53.627Z,3.50
2019-05-25T09:19:53.620Z,3.80
2019-05-25T09:20:53.600Z,3.90
2019-05-25T09:22:02.583Z,3.30
2019-05-25T09:22:54.604Z,3.90
2019-05-25T09:23:53.578Z,4.20
2019-05-25T09:24:53.565Z,4.00
2019-05-25T09:25:53.561Z,4.10
2019-05-25T09:26:53.539Z,4.10
2019-05-25T09:27:53.565Z,3.70
2019-05-25T09:29:04.002Z,3.70
2019-05-25T09:29:54.503Z,3.60
2019-05-25T09:30:53.500Z,4.40
2019-05-25T09:31:53.488Z,3.40
2019-05-25T09:32:53.471Z,3.60
2019-05-25T09:33:53.475Z,3.80
2019-05-25T09:34:53.459Z,3.10
2019-05-25T09:35:53.439Z,3.30
2019-05-25T09:36:53.430Z,3.20
2019-05-25T09:37:53.423Z,3.50
2019-05-25T09:38:53.428Z,3.50
2019-05-25T09:39:53.405Z,3.70
2019-05-25T09:40:53.380Z,3.70
2019-05-25T09:41:53.370Z,3.20
2019-05-25T09:42:53.426Z,3.30
2019-05-25T09:43:53.361Z,3.60
2019-05-25T09:44:53.333Z,3.20
2019-05-25T09:45:53.328Z,3.40
2019-05-25T09:46:53.321Z,3.40
2019-05-25T09:47:53.306Z,3.50
2019-05-25T09:48:53.320Z,3.30
2019-05-25T09:49:53.336Z,3.30
2019-05-25T09:50:53.269Z,3.50
2019-05-25T09:51:53.261Z,3.10
2019-05-25T09:52:53.252Z,3.30
2019-05-25T09:53:53.236Z,3.10
2019-05-25T09:54:55.691Z,2.90
2019-05-25T09:55:53.210Z,3.50
2019-05-25T09:56:53.207Z,2.60
2019-05-25T09:57:53.201Z,2.70
2019-05-25T09:58:53.180Z,2.80
2019-05-25T09:59:53.214Z,2.90
2019-05-25T10:00:53.157Z,2.70
2019-05-25T10:01:53.155Z,2.80
2019-05-25T10:02:53.169Z,3.20
2019-05-25T10:03:56.104Z,2.70
2019-05-25T10:04:53.132Z,2.90
2019-05-25T10:05:53.106Z,2.90
2019-05-25T10:06:53.116Z,2.90
2019-05-25T10:07:53.086Z,2.90
2019-05-25T10:08:53.069Z,2.80
2019-05-25T10:09:53.088Z,2.90
2019-05-25T10:10:53.044Z,2.80
2019-05-25T10:11:53.039Z,2.70
2019-05-25T10:12:53.021Z,2.50
2019-05-25T10:13:53.044Z,2.50
2019-05-25T10:14:53.024Z,2.70
2019-05-25T10:15:53.017Z,2.80
2019-05-25T10:16:52.981Z,2.40
2019-05-25T10:17:52.990Z,2.30
2019-05-25T10:18:52.959Z,2.70
2019-05-25T10:19:52.944Z,2.60
2019-05-25T10:20:52.957Z,2.50
2019-05-25T10:21:52.922Z,2.30
2019-05-25T10:22:52.919Z,2.40
2019-05-25T10:23:52.903Z,2.50
2019-05-25T10:24:52.888Z,2.90
2019-05-25T10:25:52.899Z,2.70
2019-05-25T10:26:52.871Z,2.90
2019-05-25T10:27:52.859Z,2.90
2019-05-25T10:28:52.846Z,3.00
2019-05-25T10:29:52.834Z,3.10
2019-05-25T10:30:52.838Z,2.90
2019-05-25T10:31:52.812Z,3.10
2019-05-25T10:32:52.809Z,3.20
2019-05-25T10:33:52.792Z,3.00
2019-05-25T10:34:52.785Z,3.10
2019-05-25T10:35:52.800Z,2.70
2019-05-25T10:36:52.759Z,2.90
2019-05-25T10:37:52.757Z,2.70
2019-05-25T10:38:52.739Z,3.10
2019-05-25T10:39:52.724Z,2.70
2019-05-25T10:40:52.862Z,3.20
2019-05-25T10:41:52.713Z,3.80
2019-05-25T10:42:52.690Z,3.00
2019-05-25T10:43:52.682Z,3.20
2019-05-25T10:44:52.675Z,2.90
2019-05-25T10:45:52.679Z,2.90
2019-05-25T10:46:52.654Z,2.80
2019-05-25T10:47:52.708Z,3.00
2019-05-25T10:48:52.625Z,3.10
2019-05-25T10:49:52.618Z,2.80
2019-05-25T10:50:52.656Z,2.80
2019-05-25T10:51:52.590Z,3.00
2019-05-25T10:52:52.577Z,2.50
2019-05-25T10:53:52.566Z,2.70
2019-05-25T10:54:52.557Z,2.70
2019-05-25T10:55:52.568Z,2.50
2019-05-25T10:56:52.536Z,2.50
2019-05-25T10:57:52.528Z,2.70
2019-05-25T10:58:52.521Z,2.60
2019-05-25T10:59:53.542Z,2.70
2019-05-25T11:00:52.512Z,2.70
2019-05-25T11:01:52.493Z,2.70
2019-05-25T11:02:52.466Z,2.60
2019-05-25T11:03:52.465Z,2.70
2019-05-25T11:04:52.447Z,2.60
2019-05-25T11:05:52.464Z,2.90
2019-05-25T11:06:52.490Z,2.70
2019-05-25T11:07:52.418Z,2.60
2019-05-25T11:08:52.406Z,2.60
2019-05-25T11:09:52.400Z,2.50
2019-05-25T11:10:52.403Z,2.80
2019-05-25T11:11:52.371Z,2.80
2019-05-25T11:12:52.362Z,2.90
2019-05-25T11:13:52.354Z,2.50
2019-05-25T11:14:52.342Z,2.70
2019-05-25T11:15:52.350Z,2.40
2019-05-25T11:16:52.316Z,2.90
2019-05-25T11:17:52.299Z,2.90
2019-05-25T11:18:52.290Z,2.70
2019-05-25T11:19:52.278Z,2.40
2019-05-25T11:20:52.294Z,2.60
2019-05-25T11:21:52.263Z,2.70
2019-05-25T11:22:52.249Z,2.80
2019-05-25T11:23:52.235Z,2.70
2019-05-25T11:24:52.230Z,2.60
2019-05-25T11:25:52.237Z,2.40
2019-05-25T11:26:52.207Z,2.60
2019-05-25T11:27:52.201Z,2.60
2019-05-25T11:28:52.180Z,2.90
2019-05-25T11:30:07.563Z,2.40
2019-05-25T11:30:53.180Z,2.70
2019-05-25T11:31:57.747Z,2.70
2019-05-25T11:32:53.152Z,2.80
2019-05-25T11:33:52.124Z,2.70
2019-05-25T11:34:52.115Z,3.00
2019-05-25T11:35:52.125Z,3.00
2019-05-25T11:36:52.113Z,2.30
2019-05-25T11:37:52.084Z,2.60
2019-05-25T11:38:52.067Z,2.70
2019-05-25T11:39:52.092Z,2.20
2019-05-25T11:40:52.052Z,2.80
2019-05-25T11:41:52.074Z,2.40
2019-05-25T11:42:52.030Z,2.50
2019-05-25T11:43:52.021Z,2.70
2019-05-25T11:44:52.004Z,2.80
2019-05-25T11:45:51.993Z,2.90
2019-05-25T11:46:52.022Z,2.70
2019-05-25T11:47:51.979Z,2.60
2019-05-25T11:48:51.965Z,2.70
2019-05-25T11:49:51.954Z,2.80
2019-05-25T11:50:51.943Z,2.30
2019-05-25T11:51:51.951Z,2.50
2019-05-25T11:52:52.058Z,2.10
2019-05-25T11:53:51.917Z,2.20
2019-05-25T11:54:51.898Z,2.30
2019-05-25T11:55:51.892Z,2.40
2019-05-25T11:56:51.896Z,2.30
2019-05-25T11:57:51.865Z,2.50
2019-05-25T11:58:51.851Z,2.50
2019-05-25T11:59:51.837Z,2.40
2019-05-25T12:00:51.878Z,2.60
2019-05-25T12:01:51.839Z,2.50
2019-05-25T12:02:51.808Z,2.00
2019-05-25T12:03:51.794Z,2.30
2019-05-25T12:04:52.781Z,2.20
2019-05-25T12:05:51.770Z,2.30
2019-05-25T12:06:51.782Z,2.40
2019-05-25T12:07:51.754Z,2.30
2019-05-25T12:08:51.742Z,2.30
2019-05-25T12:09:51.731Z,2.20
2019-05-25T12:10:51.719Z,2.60
2019-05-25T12:11:51.726Z,2.30
2019-05-25T12:12:51.701Z,2.50
2019-05-25T12:13:51.685Z,2.60
2019-05-25T12:14:51.672Z,2.20
2019-05-25T12:15:51.663Z,2.30
2019-05-25T12:16:51.686Z,2.60
2019-05-25T12:17:51.653Z,2.30
2019-05-25T12:18:51.634Z,2.20
2019-05-25T12:19:51.636Z,2.20
2019-05-25T12:20:51.649Z,2.30
2019-05-25T12:21:51.596Z,2.30
2019-05-25T12:22:51.604Z,2.30
2019-05-25T12:23:51.584Z,2.10
2019-05-25T12:24:51.606Z,2.20
2019-05-25T12:25:51.552Z,2.20
2019-05-25T12:26:51.538Z,2.10
2019-05-25T12:27:51.557Z,2.60
2019-05-25T12:28:51.518Z,2.20
2019-05-25T12:29:51.511Z,2.20
2019-05-25T12:30:51.509Z,2.10
2019-05-25T12:31:51.486Z,2.20
2019-05-25T12:32:51.489Z,2.10
2019-05-25T12:33:51.462Z,2.20
2019-05-25T12:34:51.448Z,2.50
2019-05-25T12:35:51.446Z,2.60
2019-05-25T12:36:51.430Z,3.20
2019-05-25T12:37:51.435Z,3.50
2019-05-25T12:38:51.407Z,3.40
2019-05-25T12:39:51.399Z,3.40
2019-05-25T12:40:53.885Z,3.30
2019-05-25T12:41:51.378Z,3.00
2019-05-25T12:42:51.524Z,2.80
2019-05-25T12:43:51.351Z,2.60
2019-05-25T12:44:51.340Z,2.60
2019-05-25T12:45:51.327Z,2.30
2019-05-25T12:46:51.316Z,2.20
2019-05-25T12:47:51.330Z,2.40
2019-05-25T12:48:51.300Z,2.30
2019-05-25T12:49:51.377Z,2.40
2019-05-25T12:50:51.272Z,1.90
2019-05-25T12:51:51.266Z,2.40
2019-05-25T12:52:51.273Z,2.20
2019-05-25T12:53:51.258Z,2.60
2019-05-25T12:54:51.237Z,2.30
2019-05-25T12:55:51.234Z,2.30
2019-05-25T12:56:51.216Z,2.10
2019-05-25T12:57:51.576Z,1.90
2019-05-25T12:58:51.185Z,2.00
2019-05-25T12:59:51.218Z,2.50
2019-05-25T13:00:55.969Z,2.40
2019-05-25T13:01:52.148Z,2.10
2019-05-25T13:02:51.165Z,2.20
2019-05-25T13:03:51.124Z,2.30
2019-05-25T13:04:51.120Z,2.30
2019-05-25T13:05:51.104Z,2.10
2019-05-25T13:06:51.097Z,2.20
2019-05-25T13:07:51.120Z,2.20
2019-05-25T13:08:51.071Z,1.80
2019-05-25T13:09:51.068Z,2.40
2019-05-25T13:10:51.052Z,2.80
2019-05-25T13:11:51.058Z,2.40
2019-05-25T13:12:51.044Z,2.80
2019-05-25T13:13:51.021Z,2.40
2019-05-25T13:14:51.010Z,2.70
2019-05-25T13:15:50.998Z,2.80
2019-05-25T13:16:50.980Z,2.70
2019-05-25T13:17:51.020Z,2.70
2019-05-25T13:18:50.972Z,2.90